sensor_id;sensor_type;location;lat;lon;timestamp;P1;durP1;ratioP1;P2;durP2;ratioP2
34541;SDS011;20784;51.332;12.410;2024-01-16T00:02:33;5.47;;;2.00;;
34541;SDS011;20784;51.332;12.410;2024-01-16T00:05:48;7.18;;;2.10;;
34541;SDS011;20784;51.332;12.410;2024-01-16T00:25:21;5.13;;;2.55;;
34541;SDS011;20784;51.332;12.410;2024-01-16T00:28:09;5.32;;;2.20;;
34541;SDS011;20784;51.332;12.410;2024-01-16T00:30:53;9.02;;;2.45;;
34541;SDS011;20784;51.332;12.410;2024-01-16T00:33:57;5.40;;;2.38;;
34541;SDS011;20784;51.332;12.410;2024-01-16T00:36:51;11.80;;;2.75;;
34541;SDS011;20784;51.332;12.410;2024-01-16T00:39:36;5.57;;;2.10;;
34541;SDS011;20784;51.332;12.410;2024-01-16T00:42:08;8.65;;;2.58;;
34541;SDS011;20784;51.332;12.410;2024-01-16T00:44:39;5.80;;;2.57;;
34541;SDS011;20784;51.332;12.410;2024-01-16T00:47:17;4.10;;;2.22;;
34541;SDS011;20784;51.332;12.410;2024-01-16T00:52:57;9.20;;;2.83;;
34541;SDS011;20784;51.332;12.410;2024-01-16T00:58:50;7.63;;;2.63;;
34541;SDS011;20784;51.332;12.410;2024-01-16T01:01:54;7.18;;;2.10;;
34541;SDS011;20784;51.332;12.410;2024-01-16T01:04:47;4.95;;;2.65;;
34541;SDS011;20784;51.332;12.410;2024-01-16T01:07:40;5.47;;;3.03;;
34541;SDS011;20784;51.332;12.410;2024-01-16T01:10:30;5.13;;;2.72;;
34541;SDS011;20784;51.332;12.410;2024-01-16T01:13:22;4.32;;;2.63;;
34541;SDS011;20784;51.332;12.410;2024-01-16T01:16:05;7.72;;;2.38;;
34541;SDS011;20784;51.332;12.410;2024-01-16T01:18:54;8.38;;;2.50;;
34541;SDS011;20784;51.332;12.410;2024-01-16T01:21:39;10.15;;;3.45;;
34541;SDS011;20784;51.332;12.410;2024-01-16T01:24:10;4.50;;;2.42;;
34541;SDS011;20784;51.332;12.410;2024-01-16T01:26:55;4.70;;;2.95;;
34541;SDS011;20784;51.332;12.410;2024-01-16T01:29:45;3.53;;;2.20;;
34541;SDS011;20784;51.332;12.410;2024-01-16T01:32:21;6.80;;;2.22;;
34541;SDS011;20784;51.332;12.410;2024-01-16T01:42:02;4.43;;;1.55;;
34541;SDS011;20784;51.332;12.410;2024-01-16T01:44:33;5.55;;;1.50;;
34541;SDS011;20784;51.332;12.410;2024-01-16T01:47:10;2.72;;;1.35;;
34541;SDS011;20784;51.332;12.410;2024-01-16T01:50:27;3.00;;;1.35;;
34541;SDS011;20784;51.332;12.410;2024-01-16T01:53:06;4.57;;;1.38;;
34541;SDS011;20784;51.332;12.410;2024-01-16T01:55:47;4.85;;;1.35;;
34541;SDS011;20784;51.332;12.410;2024-01-16T02:01:50;4.75;;;1.45;;
34541;SDS011;20784;51.332;12.410;2024-01-16T02:04:41;8.15;;;1.35;;
34541;SDS011;20784;51.332;12.410;2024-01-16T02:07:19;6.03;;;1.65;;
34541;SDS011;20784;51.332;12.410;2024-01-16T02:10:09;3.65;;;1.48;;
34541;SDS011;20784;51.332;12.410;2024-01-16T02:13:16;4.30;;;1.25;;
34541;SDS011;20784;51.332;12.410;2024-01-16T02:15:53;5.07;;;1.55;;
34541;SDS011;20784;51.332;12.410;2024-01-16T02:27:59;3.45;;;1.65;;
34541;SDS011;20784;51.332;12.410;2024-01-16T02:30:53;4.40;;;1.52;;
34541;SDS011;20784;51.332;12.410;2024-01-16T02:33:42;2.80;;;1.40;;
34541;SDS011;20784;51.332;12.410;2024-01-16T02:36:13;2.33;;;1.40;;
34541;SDS011;20784;51.332;12.410;2024-01-16T02:59:52;2.72;;;1.00;;
34541;SDS011;20784;51.332;12.410;2024-01-16T03:05:20;2.90;;;1.17;;
34541;SDS011;20784;51.332;12.410;2024-01-16T03:07:49;3.25;;;0.93;;
34541;SDS011;20784;51.332;12.410;2024-01-16T03:10:15;3.08;;;0.98;;
34541;SDS011;20784;51.332;12.410;2024-01-16T03:12:50;2.42;;;0.90;;
34541;SDS011;20784;51.332;12.410;2024-01-16T03:15:19;8.38;;;1.73;;
34541;SDS011;20784;51.332;12.410;2024-01-16T03:17:45;1.60;;;1.05;;
34541;SDS011;20784;51.332;12.410;2024-01-16T03:20:24;3.03;;;0.90;;
34541;SDS011;20784;51.332;12.410;2024-01-16T03:22:50;3.35;;;1.15;;
34541;SDS011;20784;51.332;12.410;2024-01-16T03:25:28;10.38;;;1.70;;
34541;SDS011;20784;51.332;12.410;2024-01-16T03:28:11;3.28;;;1.05;;
34541;SDS011;20784;51.332;12.410;2024-01-16T03:30:59;3.25;;;1.10;;
34541;SDS011;20784;51.332;12.410;2024-01-16T03:33:34;2.70;;;1.00;;
34541;SDS011;20784;51.332;12.410;2024-01-16T03:36:08;4.50;;;1.08;;
34541;SDS011;20784;51.332;12.410;2024-01-16T03:38:44;5.35;;;1.50;;
34541;SDS011;20784;51.332;12.410;2024-01-16T03:41:19;5.40;;;1.30;;
34541;SDS011;20784;51.332;12.410;2024-01-16T03:43:48;2.60;;;1.00;;
34541;SDS011;20784;51.332;12.410;2024-01-16T03:46:34;3.53;;;0.98;;
34541;SDS011;20784;51.332;12.410;2024-01-16T03:49:17;5.05;;;1.63;;
34541;SDS011;20784;51.332;12.410;2024-01-16T03:51:45;3.97;;;1.38;;
34541;SDS011;20784;51.332;12.410;2024-01-16T03:54:23;5.95;;;1.27;;
34541;SDS011;20784;51.332;12.410;2024-01-16T03:59:46;3.35;;;1.42;;
34541;SDS011;20784;51.332;12.410;2024-01-16T04:02:19;4.63;;;1.40;;
34541;SDS011;20784;51.332;12.410;2024-01-16T04:04:53;7.55;;;1.63;;
34541;SDS011;20784;51.332;12.410;2024-01-16T04:07:33;3.17;;;1.42;;
34541;SDS011;20784;51.332;12.410;2024-01-16T04:23:32;3.45;;;1.27;;
34541;SDS011;20784;51.332;12.410;2024-01-16T04:26:29;5.57;;;1.70;;
34541;SDS011;20784;51.332;12.410;2024-01-16T04:29:27;4.30;;;1.40;;
34541;SDS011;20784;51.332;12.410;2024-01-16T04:32:44;5.45;;;1.52;;
34541;SDS011;20784;51.332;12.410;2024-01-16T04:35:34;6.63;;;1.50;;
34541;SDS011;20784;51.332;12.410;2024-01-16T04:38:23;4.85;;;1.30;;
34541;SDS011;20784;51.332;12.410;2024-01-16T04:40:52;7.63;;;1.80;;
34541;SDS011;20784;51.332;12.410;2024-01-16T04:45:54;4.78;;;1.90;;
34541;SDS011;20784;51.332;12.410;2024-01-16T04:48:35;8.68;;;1.52;;
34541;SDS011;20784;51.332;12.410;2024-01-16T04:51:04;4.45;;;1.95;;
34541;SDS011;20784;51.332;12.410;2024-01-16T04:53:41;3.35;;;1.90;;
34541;SDS011;20784;51.332;12.410;2024-01-16T04:56:28;7.05;;;1.67;;
34541;SDS011;20784;51.332;12.410;2024-01-16T04:59:00;7.53;;;2.35;;
34541;SDS011;20784;51.332;12.410;2024-01-16T05:01:46;9.02;;;2.25;;
34541;SDS011;20784;51.332;12.410;2024-01-16T05:05:12;5.22;;;2.13;;
34541;SDS011;20784;51.332;12.410;2024-01-16T05:07:41;5.30;;;2.38;;
34541;SDS011;20784;51.332;12.410;2024-01-16T05:10:27;6.68;;;2.33;;
34541;SDS011;20784;51.332;12.410;2024-01-16T05:13:39;7.35;;;3.42;;
34541;SDS011;20784;51.332;12.410;2024-01-16T05:16:10;4.10;;;3.08;;
34541;SDS011;20784;51.332;12.410;2024-01-16T05:18:44;7.93;;;3.47;;
34541;SDS011;20784;51.332;12.410;2024-01-16T05:21:59;9.53;;;3.70;;
34541;SDS011;20784;51.332;12.410;2024-01-16T05:24:40;4.70;;;3.00;;
34541;SDS011;20784;51.332;12.410;2024-01-16T05:27:32;9.05;;;3.42;;
34541;SDS011;20784;51.332;12.410;2024-01-16T05:30:38;6.30;;;2.83;;
34541;SDS011;20784;51.332;12.410;2024-01-16T05:33:32;8.25;;;3.50;;
34541;SDS011;20784;51.332;12.410;2024-01-16T05:36:08;9.63;;;3.80;;
34541;SDS011;20784;51.332;12.410;2024-01-16T05:38:54;10.60;;;4.00;;
34541;SDS011;20784;51.332;12.410;2024-01-16T05:41:20;12.40;;;3.80;;
34541;SDS011;20784;51.332;12.410;2024-01-16T05:43:48;5.85;;;3.08;;
34541;SDS011;20784;51.332;12.410;2024-01-16T05:49:38;6.93;;;3.00;;
34541;SDS011;20784;51.332;12.410;2024-01-16T05:52:28;8.98;;;2.95;;
34541;SDS011;20784;51.332;12.410;2024-01-16T05:55:08;7.85;;;3.05;;
34541;SDS011;20784;51.332;12.410;2024-01-16T05:57:39;4.43;;;2.40;;
34541;SDS011;20784;51.332;12.410;2024-01-16T06:00:27;4.80;;;2.33;;
34541;SDS011;20784;51.332;12.410;2024-01-16T06:02:57;8.52;;;3.05;;
34541;SDS011;20784;51.332;12.410;2024-01-16T06:05:38;7.15;;;2.65;;
34541;SDS011;20784;51.332;12.410;2024-01-16T06:08:07;5.68;;;2.58;;
34541;SDS011;20784;51.332;12.410;2024-01-16T06:10:45;8.93;;;3.83;;
34541;SDS011;20784;51.332;12.410;2024-01-16T06:13:14;15.50;;;7.05;;
34541;SDS011;20784;51.332;12.410;2024-01-16T06:15:40;10.90;;;3.97;;
34541;SDS011;20784;51.332;12.410;2024-01-16T06:18:16;12.68;;;5.03;;
34541;SDS011;20784;51.332;12.410;2024-01-16T06:21:15;18.42;;;7.07;;
34541;SDS011;20784;51.332;12.410;2024-01-16T06:23:54;9.30;;;3.53;;
34541;SDS011;20784;51.332;12.410;2024-01-16T06:32:16;4.78;;;2.38;;
34541;SDS011;20784;51.332;12.410;2024-01-16T06:35:20;5.32;;;2.60;;
34541;SDS011;20784;51.332;12.410;2024-01-16T06:38:30;7.18;;;2.70;;
34541;SDS011;20784;51.332;12.410;2024-01-16T06:41:07;3.60;;;1.90;;
34541;SDS011;20784;51.332;12.410;2024-01-16T06:43:33;4.22;;;2.13;;
34541;SDS011;20784;51.332;12.410;2024-01-16T06:46:21;5.13;;;2.10;;
34541;SDS011;20784;51.332;12.410;2024-01-16T06:48:47;6.50;;;2.20;;
34541;SDS011;20784;51.332;12.410;2024-01-16T06:51:20;6.90;;;2.30;;
34541;SDS011;20784;51.332;12.410;2024-01-16T06:53:45;6.75;;;2.47;;
34541;SDS011;20784;51.332;12.410;2024-01-16T06:56:11;9.88;;;2.58;;
34541;SDS011;20784;51.332;12.410;2024-01-16T06:58:37;7.22;;;2.47;;
34541;SDS011;20784;51.332;12.410;2024-01-16T07:01:03;8.02;;;2.80;;
34541;SDS011;20784;51.332;12.410;2024-01-16T07:03:29;7.72;;;2.45;;
34541;SDS011;20784;51.332;12.410;2024-01-16T07:05:55;6.07;;;2.30;;
34541;SDS011;20784;51.332;12.410;2024-01-16T07:08:21;6.50;;;2.95;;
34541;SDS011;20784;51.332;12.410;2024-01-16T07:10:46;8.68;;;3.28;;
34541;SDS011;20784;51.332;12.410;2024-01-16T07:13:12;7.47;;;2.58;;
34541;SDS011;20784;51.332;12.410;2024-01-16T07:15:39;11.32;;;3.05;;
34541;SDS011;20784;51.332;12.410;2024-01-16T07:18:05;12.43;;;3.08;;
34541;SDS011;20784;51.332;12.410;2024-01-16T07:20:34;6.68;;;3.50;;
34541;SDS011;20784;51.332;12.410;2024-01-16T07:23:02;10.95;;;4.07;;
34541;SDS011;20784;51.332;12.410;2024-01-16T07:25:29;8.15;;;3.67;;
34541;SDS011;20784;51.332;12.410;2024-01-16T07:27:55;10.10;;;4.10;;
34541;SDS011;20784;51.332;12.410;2024-01-16T07:30:20;6.35;;;3.38;;
34541;SDS011;20784;51.332;12.410;2024-01-16T07:32:46;6.63;;;3.40;;
34541;SDS011;20784;51.332;12.410;2024-01-16T07:35:24;9.45;;;3.65;;
34541;SDS011;20784;51.332;12.410;2024-01-16T07:37:50;10.40;;;3.72;;
34541;SDS011;20784;51.332;12.410;2024-01-16T07:40:16;11.55;;;4.25;;
34541;SDS011;20784;51.332;12.410;2024-01-16T07:42:42;10.65;;;3.58;;
34541;SDS011;20784;51.332;12.410;2024-01-16T07:45:08;17.20;;;3.88;;
34541;SDS011;20784;51.332;12.410;2024-01-16T07:47:33;9.60;;;2.47;;
34541;SDS011;20784;51.332;12.410;2024-01-16T07:50:00;7.85;;;3.30;;
34541;SDS011;20784;51.332;12.410;2024-01-16T07:52:30;6.68;;;2.97;;
34541;SDS011;20784;51.332;12.410;2024-01-16T07:54:55;4.85;;;2.53;;
34541;SDS011;20784;51.332;12.410;2024-01-16T07:57:21;12.32;;;2.92;;
34541;SDS011;20784;51.332;12.410;2024-01-16T07:59:49;5.93;;;2.78;;
34541;SDS011;20784;51.332;12.410;2024-01-16T08:02:15;4.55;;;2.75;;
34541;SDS011;20784;51.332;12.410;2024-01-16T08:04:40;10.18;;;2.63;;
34541;SDS011;20784;51.332;12.410;2024-01-16T08:07:09;7.43;;;3.08;;
34541;SDS011;20784;51.332;12.410;2024-01-16T08:09:34;7.95;;;2.60;;
34541;SDS011;20784;51.332;12.410;2024-01-16T08:14:56;13.68;;;2.70;;
34541;SDS011;20784;51.332;12.410;2024-01-16T08:17:21;6.38;;;3.25;;
34541;SDS011;20784;51.332;12.410;2024-01-16T08:19:49;11.63;;;2.78;;
34541;SDS011;20784;51.332;12.410;2024-01-16T08:22:15;8.15;;;2.17;;
34541;SDS011;20784;51.332;12.410;2024-01-16T08:24:41;5.60;;;2.30;;
34541;SDS011;20784;51.332;12.410;2024-01-16T08:27:07;7.53;;;2.40;;
34541;SDS011;20784;51.332;12.410;2024-01-16T08:29:33;5.80;;;2.00;;
34541;SDS011;20784;51.332;12.410;2024-01-16T08:31:59;5.07;;;1.95;;
34541;SDS011;20784;51.332;12.410;2024-01-16T08:34:24;5.32;;;2.33;;
34541;SDS011;20784;51.332;12.410;2024-01-16T08:36:50;7.50;;;1.90;;
34541;SDS011;20784;51.332;12.410;2024-01-16T08:39:21;6.82;;;1.90;;
34541;SDS011;20784;51.332;12.410;2024-01-16T08:41:48;9.40;;;2.00;;
34541;SDS011;20784;51.332;12.410;2024-01-16T08:44:14;6.57;;;2.30;;
34541;SDS011;20784;51.332;12.410;2024-01-16T08:46:40;5.68;;;2.00;;
34541;SDS011;20784;51.332;12.410;2024-01-16T08:49:05;5.40;;;1.98;;
34541;SDS011;20784;51.332;12.410;2024-01-16T08:51:37;6.00;;;2.00;;
34541;SDS011;20784;51.332;12.410;2024-01-16T08:54:02;3.90;;;1.90;;
34541;SDS011;20784;51.332;12.410;2024-01-16T08:56:28;5.47;;;1.90;;
34541;SDS011;20784;51.332;12.410;2024-01-16T08:58:54;3.78;;;2.03;;
34541;SDS011;20784;51.332;12.410;2024-01-16T09:01:19;9.13;;;1.90;;
34541;SDS011;20784;51.332;12.410;2024-01-16T09:03:45;5.40;;;1.90;;
34541;SDS011;20784;51.332;12.410;2024-01-16T09:06:12;4.43;;;1.90;;
34541;SDS011;20784;51.332;12.410;2024-01-16T09:08:38;5.45;;;2.53;;
34541;SDS011;20784;51.332;12.410;2024-01-16T09:11:03;6.88;;;2.95;;
34541;SDS011;20784;51.332;12.410;2024-01-16T09:13:29;2.85;;;1.73;;
34541;SDS011;20784;51.332;12.410;2024-01-16T09:15:54;5.93;;;2.45;;
34541;SDS011;20784;51.332;12.410;2024-01-16T09:18:20;8.32;;;2.75;;
34541;SDS011;20784;51.332;12.410;2024-01-16T09:20:45;4.72;;;2.35;;
34541;SDS011;20784;51.332;12.410;2024-01-16T09:23:11;8.15;;;2.83;;
34541;SDS011;20784;51.332;12.410;2024-01-16T09:25:37;7.07;;;2.40;;
34541;SDS011;20784;51.332;12.410;2024-01-16T09:28:03;5.03;;;2.33;;
34541;SDS011;20784;51.332;12.410;2024-01-16T09:30:29;5.72;;;2.63;;
34541;SDS011;20784;51.332;12.410;2024-01-16T09:32:54;8.55;;;2.45;;
34541;SDS011;20784;51.332;12.410;2024-01-16T09:35:20;5.50;;;2.35;;
34541;SDS011;20784;51.332;12.410;2024-01-16T09:37:48;7.78;;;2.75;;
34541;SDS011;20784;51.332;12.410;2024-01-16T09:40:13;6.78;;;2.75;;
34541;SDS011;20784;51.332;12.410;2024-01-16T09:42:39;8.18;;;2.60;;
34541;SDS011;20784;51.332;12.410;2024-01-16T09:45:06;5.43;;;2.60;;
34541;SDS011;20784;51.332;12.410;2024-01-16T09:47:34;4.68;;;2.38;;
34541;SDS011;20784;51.332;12.410;2024-01-16T09:50:00;4.60;;;2.28;;
34541;SDS011;20784;51.332;12.410;2024-01-16T09:52:28;7.32;;;2.50;;
34541;SDS011;20784;51.332;12.410;2024-01-16T09:54:54;8.43;;;2.60;;
34541;SDS011;20784;51.332;12.410;2024-01-16T09:57:20;3.53;;;2.42;;
34541;SDS011;20784;51.332;12.410;2024-01-16T09:59:50;5.20;;;2.65;;
34541;SDS011;20784;51.332;12.410;2024-01-16T10:02:16;5.03;;;2.53;;
34541;SDS011;20784;51.332;12.410;2024-01-16T10:04:44;8.40;;;2.38;;
34541;SDS011;20784;51.332;12.410;2024-01-16T10:07:10;10.85;;;4.15;;
34541;SDS011;20784;51.332;12.410;2024-01-16T10:09:39;6.10;;;2.70;;
34541;SDS011;20784;51.332;12.410;2024-01-16T10:12:05;8.80;;;2.70;;
34541;SDS011;20784;51.332;12.410;2024-01-16T10:14:31;5.43;;;2.40;;
34541;SDS011;20784;51.332;12.410;2024-01-16T10:16:58;4.90;;;2.25;;
34541;SDS011;20784;51.332;12.410;2024-01-16T10:19:26;6.10;;;2.60;;
34541;SDS011;20784;51.332;12.410;2024-01-16T10:21:52;10.13;;;2.97;;
34541;SDS011;20784;51.332;12.410;2024-01-16T10:24:25;9.18;;;2.88;;
34541;SDS011;20784;51.332;12.410;2024-01-16T10:26:57;10.73;;;3.90;;
34541;SDS011;20784;51.332;12.410;2024-01-16T10:29:25;7.18;;;2.72;;
34541;SDS011;20784;51.332;12.410;2024-01-16T10:31:50;6.65;;;2.55;;
34541;SDS011;20784;51.332;12.410;2024-01-16T10:34:19;7.15;;;2.55;;
34541;SDS011;20784;51.332;12.410;2024-01-16T10:36:46;3.92;;;2.17;;
34541;SDS011;20784;51.332;12.410;2024-01-16T10:39:13;5.82;;;2.35;;
34541;SDS011;20784;51.332;12.410;2024-01-16T10:41:39;3.97;;;2.33;;
34541;SDS011;20784;51.332;12.410;2024-01-16T10:44:05;4.85;;;2.40;;
34541;SDS011;20784;51.332;12.410;2024-01-16T10:46:35;10.25;;;2.70;;
34541;SDS011;20784;51.332;12.410;2024-01-16T10:49:02;3.55;;;1.90;;
34541;SDS011;20784;51.332;12.410;2024-01-16T10:51:29;6.35;;;2.33;;
34541;SDS011;20784;51.332;12.410;2024-01-16T10:53:59;4.05;;;2.03;;
34541;SDS011;20784;51.332;12.410;2024-01-16T10:56:28;4.38;;;2.33;;
34541;SDS011;20784;51.332;12.410;2024-01-16T10:58:57;5.70;;;2.50;;
34541;SDS011;20784;51.332;12.410;2024-01-16T11:01:50;7.50;;;2.45;;
34541;SDS011;20784;51.332;12.410;2024-01-16T11:04:18;8.50;;;2.63;;
34541;SDS011;20784;51.332;12.410;2024-01-16T11:06:45;8.45;;;2.58;;
34541;SDS011;20784;51.332;12.410;2024-01-16T11:09:12;6.57;;;3.08;;
34541;SDS011;20784;51.332;12.410;2024-01-16T11:11:40;12.48;;;3.13;;
34541;SDS011;20784;51.332;12.410;2024-01-16T11:14:08;7.80;;;2.50;;
34541;SDS011;20784;51.332;12.410;2024-01-16T11:16:35;9.95;;;2.72;;
34541;SDS011;20784;51.332;12.410;2024-01-16T11:19:01;8.75;;;2.47;;
34541;SDS011;20784;51.332;12.410;2024-01-16T11:21:31;8.85;;;2.28;;
34541;SDS011;20784;51.332;12.410;2024-01-16T11:23:56;10.05;;;2.85;;
34541;SDS011;20784;51.332;12.410;2024-01-16T11:28:57;12.20;;;2.95;;
34541;SDS011;20784;51.332;12.410;2024-01-16T11:31:34;10.43;;;3.00;;
34541;SDS011;20784;51.332;12.410;2024-01-16T11:34:00;8.23;;;2.70;;
34541;SDS011;20784;51.332;12.410;2024-01-16T11:39:22;7.82;;;2.63;;
34541;SDS011;20784;51.332;12.410;2024-01-16T11:41:50;6.40;;;2.55;;
34541;SDS011;20784;51.332;12.410;2024-01-16T11:47:19;6.22;;;2.67;;
34541;SDS011;20784;51.332;12.410;2024-01-16T11:49:46;10.90;;;2.42;;
34541;SDS011;20784;51.332;12.410;2024-01-16T11:52:13;10.95;;;3.17;;
34541;SDS011;20784;51.332;12.410;2024-01-16T11:54:39;10.10;;;3.72;;
34541;SDS011;20784;51.332;12.410;2024-01-16T12:03:08;6.45;;;2.88;;
34541;SDS011;20784;51.332;12.410;2024-01-16T12:05:35;6.32;;;3.20;;
34541;SDS011;20784;51.332;12.410;2024-01-16T12:08:00;6.82;;;2.90;;
34541;SDS011;20784;51.332;12.410;2024-01-16T12:10:28;6.35;;;2.95;;
34541;SDS011;20784;51.332;12.410;2024-01-16T12:13:00;5.90;;;2.80;;
34541;SDS011;20784;51.332;12.410;2024-01-16T12:15:28;6.35;;;3.10;;
34541;SDS011;20784;51.332;12.410;2024-01-16T12:17:56;10.88;;;3.03;;
34541;SDS011;20784;51.332;12.410;2024-01-16T12:20:23;9.82;;;3.33;;
34541;SDS011;20784;51.332;12.410;2024-01-16T12:22:57;6.57;;;3.38;;
34541;SDS011;20784;51.332;12.410;2024-01-16T12:25:24;8.93;;;3.03;;
34541;SDS011;20784;51.332;12.410;2024-01-16T12:27:58;7.75;;;2.95;;
34541;SDS011;20784;51.332;12.410;2024-01-16T12:30:25;10.77;;;3.38;;
34541;SDS011;20784;51.332;12.410;2024-01-16T12:33:02;7.85;;;3.53;;
34541;SDS011;20784;51.332;12.410;2024-01-16T12:35:37;7.60;;;3.13;;
34541;SDS011;20784;51.332;12.410;2024-01-16T12:38:05;8.40;;;3.28;;
34541;SDS011;20784;51.332;12.410;2024-01-16T12:40:34;7.90;;;3.63;;
34541;SDS011;20784;51.332;12.410;2024-01-16T12:43:01;5.03;;;3.80;;
34541;SDS011;20784;51.332;12.410;2024-01-16T12:45:34;9.10;;;3.95;;
34541;SDS011;20784;51.332;12.410;2024-01-16T12:48:01;8.23;;;4.00;;
34541;SDS011;20784;51.332;12.410;2024-01-16T12:50:28;9.80;;;4.07;;
34541;SDS011;20784;51.332;12.410;2024-01-16T12:53:05;9.25;;;4.43;;
34541;SDS011;20784;51.332;12.410;2024-01-16T12:55:32;8.38;;;4.70;;
34541;SDS011;20784;51.332;12.410;2024-01-16T12:58:21;9.20;;;4.18;;
34541;SDS011;20784;51.332;12.410;2024-01-16T13:00:52;9.98;;;4.43;;
34541;SDS011;20784;51.332;12.410;2024-01-16T13:03:18;8.77;;;3.60;;
34541;SDS011;20784;51.332;12.410;2024-01-16T13:05:46;7.90;;;4.18;;
34541;SDS011;20784;51.332;12.410;2024-01-16T13:08:21;7.90;;;3.78;;
34541;SDS011;20784;51.332;12.410;2024-01-16T13:11:05;6.47;;;3.92;;
34541;SDS011;20784;51.332;12.410;2024-01-16T13:13:32;11.30;;;4.72;;
34541;SDS011;20784;51.332;12.410;2024-01-16T13:15:59;5.55;;;3.70;;
34541;SDS011;20784;51.332;12.410;2024-01-16T13:18:27;10.02;;;4.45;;
34541;SDS011;20784;51.332;12.410;2024-01-16T13:20:54;14.80;;;4.25;;
34541;SDS011;20784;51.332;12.410;2024-01-16T13:23:24;9.13;;;4.13;;
34541;SDS011;20784;51.332;12.410;2024-01-16T13:25:50;9.20;;;4.60;;
34541;SDS011;20784;51.332;12.410;2024-01-16T13:28:28;10.27;;;4.70;;
34541;SDS011;20784;51.332;12.410;2024-01-16T13:30:54;11.25;;;3.85;;
34541;SDS011;20784;51.332;12.410;2024-01-16T13:33:22;10.27;;;4.35;;
34541;SDS011;20784;51.332;12.410;2024-01-16T13:35:48;9.40;;;4.00;;
34541;SDS011;20784;51.332;12.410;2024-01-16T13:38:15;9.75;;;3.95;;
34541;SDS011;20784;51.332;12.410;2024-01-16T13:40:41;7.50;;;3.35;;
34541;SDS011;20784;51.332;12.410;2024-01-16T13:43:07;12.45;;;3.72;;
34541;SDS011;20784;51.332;12.410;2024-01-16T13:45:36;11.40;;;4.43;;
34541;SDS011;20784;51.332;12.410;2024-01-16T13:48:03;6.90;;;3.50;;
34541;SDS011;20784;51.332;12.410;2024-01-16T13:50:32;6.35;;;3.13;;
34541;SDS011;20784;51.332;12.410;2024-01-16T13:52:58;11.18;;;3.90;;
34541;SDS011;20784;51.332;12.410;2024-01-16T13:55:24;7.70;;;3.63;;
34541;SDS011;20784;51.332;12.410;2024-01-16T13:57:50;5.95;;;3.60;;
34541;SDS011;20784;51.332;12.410;2024-01-16T14:00:16;7.97;;;4.15;;
34541;SDS011;20784;51.332;12.410;2024-01-16T14:02:43;10.15;;;4.80;;
34541;SDS011;20784;51.332;12.410;2024-01-16T14:05:13;8.13;;;3.78;;
34541;SDS011;20784;51.332;12.410;2024-01-16T14:07:46;7.28;;;3.90;;
34541;SDS011;20784;51.332;12.410;2024-01-16T14:10:20;8.07;;;3.78;;
34541;SDS011;20784;51.332;12.410;2024-01-16T14:12:48;11.02;;;3.90;;
34541;SDS011;20784;51.332;12.410;2024-01-16T14:15:16;9.30;;;4.07;;
34541;SDS011;20784;51.332;12.410;2024-01-16T14:17:49;6.38;;;3.30;;
34541;SDS011;20784;51.332;12.410;2024-01-16T14:20:19;8.98;;;3.70;;
34541;SDS011;20784;51.332;12.410;2024-01-16T14:22:48;7.75;;;3.78;;
34541;SDS011;20784;51.332;12.410;2024-01-16T14:25:15;7.65;;;4.07;;
34541;SDS011;20784;51.332;12.410;2024-01-16T14:27:44;6.22;;;3.95;;
34541;SDS011;20784;51.332;12.410;2024-01-16T14:30:23;6.40;;;3.53;;
34541;SDS011;20784;51.332;12.410;2024-01-16T14:32:50;7.60;;;3.80;;
34541;SDS011;20784;51.332;12.410;2024-01-16T14:35:16;9.77;;;4.35;;
34541;SDS011;20784;51.332;12.410;2024-01-16T14:37:45;9.20;;;4.10;;
34541;SDS011;20784;51.332;12.410;2024-01-16T14:40:11;7.20;;;3.85;;
34541;SDS011;20784;51.332;12.410;2024-01-16T14:42:48;7.13;;;3.85;;
34541;SDS011;20784;51.332;12.410;2024-01-16T14:45:16;7.63;;;3.65;;
34541;SDS011;20784;51.332;12.410;2024-01-16T14:47:42;8.23;;;3.83;;
34541;SDS011;20784;51.332;12.410;2024-01-16T14:50:10;12.00;;;3.95;;
34541;SDS011;20784;51.332;12.410;2024-01-16T14:52:37;9.60;;;3.78;;
34541;SDS011;20784;51.332;12.410;2024-01-16T14:55:03;5.63;;;3.70;;
34541;SDS011;20784;51.332;12.410;2024-01-16T14:57:32;7.65;;;3.70;;
34541;SDS011;20784;51.332;12.410;2024-01-16T15:00:02;12.77;;;6.10;;
34541;SDS011;20784;51.332;12.410;2024-01-16T15:02:31;12.77;;;7.78;;
34541;SDS011;20784;51.332;12.410;2024-01-16T15:04:57;8.65;;;4.05;;
34541;SDS011;20784;51.332;12.410;2024-01-16T15:07:23;9.20;;;4.32;;
34541;SDS011;20784;51.332;12.410;2024-01-16T15:09:50;8.10;;;4.05;;
34541;SDS011;20784;51.332;12.410;2024-01-16T15:12:15;13.25;;;4.13;;
34541;SDS011;20784;51.332;12.410;2024-01-16T15:14:43;11.02;;;3.50;;
34541;SDS011;20784;51.332;12.410;2024-01-16T15:17:10;8.48;;;3.35;;
34541;SDS011;20784;51.332;12.410;2024-01-16T15:19:38;7.53;;;3.42;;
34541;SDS011;20784;51.332;12.410;2024-01-16T15:22:05;14.27;;;3.80;;
34541;SDS011;20784;51.332;12.410;2024-01-16T15:24:32;10.43;;;3.92;;
34541;SDS011;20784;51.332;12.410;2024-01-16T15:27:10;8.25;;;3.75;;
34541;SDS011;20784;51.332;12.410;2024-01-16T15:29:39;9.30;;;3.90;;
34541;SDS011;20784;51.332;12.410;2024-01-16T15:32:13;12.52;;;4.25;;
34541;SDS011;20784;51.332;12.410;2024-01-16T15:34:39;6.55;;;3.55;;
34541;SDS011;20784;51.332;12.410;2024-01-16T15:37:20;9.27;;;3.90;;
34541;SDS011;20784;51.332;12.410;2024-01-16T15:40:05;7.30;;;3.65;;
34541;SDS011;20784;51.332;12.410;2024-01-16T15:42:36;6.05;;;3.53;;
34541;SDS011;20784;51.332;12.410;2024-01-16T16:02:23;12.45;;;4.47;;
34541;SDS011;20784;51.332;12.410;2024-01-16T16:22:50;12.50;;;4.97;;
34541;SDS011;20784;51.332;12.410;2024-01-16T16:25:39;9.68;;;3.92;;
34541;SDS011;20784;51.332;12.410;2024-01-16T16:28:37;11.23;;;4.90;;
34541;SDS011;20784;51.332;12.410;2024-01-16T16:31:32;41.95;;;17.40;;
34541;SDS011;20784;51.332;12.410;2024-01-16T16:37:11;9.93;;;4.60;;
34541;SDS011;20784;51.332;12.410;2024-01-16T16:43:04;9.40;;;4.97;;
34541;SDS011;20784;51.332;12.410;2024-01-16T16:45:52;9.45;;;4.68;;
34541;SDS011;20784;51.332;12.410;2024-01-16T16:48:27;8.00;;;4.50;;
34541;SDS011;20784;51.332;12.410;2024-01-16T16:51:19;10.85;;;4.55;;
34541;SDS011;20784;51.332;12.410;2024-01-16T16:53:54;8.50;;;4.82;;
34541;SDS011;20784;51.332;12.410;2024-01-16T16:56:29;10.93;;;4.97;;
34541;SDS011;20784;51.332;12.410;2024-01-16T16:59:18;8.55;;;4.90;;
34541;SDS011;20784;51.332;12.410;2024-01-16T17:08:08;12.00;;;4.13;;
34541;SDS011;20784;51.332;12.410;2024-01-16T17:14:17;11.13;;;4.68;;
34541;SDS011;20784;51.332;12.410;2024-01-16T17:17:05;9.65;;;4.80;;
34541;SDS011;20784;51.332;12.410;2024-01-16T17:19:53;11.43;;;5.30;;
34541;SDS011;20784;51.332;12.410;2024-01-16T17:22:28;8.57;;;4.55;;
34541;SDS011;20784;51.332;12.410;2024-01-16T17:25:03;11.57;;;5.20;;
34541;SDS011;20784;51.332;12.410;2024-01-16T17:27:35;8.98;;;5.03;;
34541;SDS011;20784;51.332;12.410;2024-01-16T17:30:04;10.13;;;5.10;;
34541;SDS011;20784;51.332;12.410;2024-01-16T17:32:33;8.23;;;4.65;;
34541;SDS011;20784;51.332;12.410;2024-01-16T17:35:01;9.13;;;5.13;;
34541;SDS011;20784;51.332;12.410;2024-01-16T17:37:35;9.98;;;5.18;;
34541;SDS011;20784;51.332;12.410;2024-01-16T17:40:04;15.43;;;5.03;;
34541;SDS011;20784;51.332;12.410;2024-01-16T17:42:47;15.35;;;5.57;;
34541;SDS011;20784;51.332;12.410;2024-01-16T17:45:23;13.18;;;5.13;;
34541;SDS011;20784;51.332;12.410;2024-01-16T17:47:57;10.50;;;5.22;;
34541;SDS011;20784;51.332;12.410;2024-01-16T17:51:04;27.45;;;13.43;;
34541;SDS011;20784;51.332;12.410;2024-01-16T17:53:36;11.00;;;5.43;;